This is the latest recevied weather packets stored in our database for station/object LB2AK-5. If no packets are shown the sender has not sent any weather packets the latest 10 day(s).
| Time | Temp. | Humidity | Pressure | Rain* | Wind** | Luminosity | Snow |
|---|---|---|---|---|---|---|---|
| 1777649732 | 28.33° C | 25% | 1008.3 hPa | - | - | - | - |
| 1777649432 | 28.33° C | 25% | 1008.3 hPa | - | - | - | - |
| 1777649132 | 28.33° C | 25% | 1008.4 hPa | - | - | - | - |
| 1777648532 | 28.33° C | 25% | 1008.4 hPa | - | - | - | - |
| 1777648232 | 28.33° C | 25% | 1008.5 hPa | - | - | - | - |
| 1777647932 | 28.33° C | 25% | 1008.3 hPa | - | - | - | - |
| 1777647332 | 28.89° C | 24% | 1008.5 hPa | - | - | - | - |
| 1777647026 | 28.33° C | 25% | 1008.5 hPa | - | - | - | - |
| 1777646426 | 28.33° C | 25% | 1008.6 hPa | - | - | - | - |
| 1777646126 | 28.33° C | 25% | 1008.6 hPa | - | - | - | - |
| 1777645826 | 28.33° C | 24% | 1008.6 hPa | - | - | - | - |
| 1777645526 | 28.89° C | 24% | 1008.8 hPa | - | - | - | - |
| 1777645216 | 28.33° C | 24% | 1008.5 hPa | - | - | - | - |
| 1777644916 | 28.33° C | 24% | 1008.7 hPa | - | - | - | - |
| 1777644316 | 28.89° C | 24% | 1008.9 hPa | - | - | - | - |
| 1777643716 | 28.89° C | 24% | 1008.9 hPa | - | - | - | - |
| 1777643416 | 28.89° C | 24% | 1008.8 hPa | - | - | - | - |
| 1777643116 | 28.89° C | 24% | 1008.9 hPa | - | - | - | - |
| 1777642816 | 28.89° C | 23% | 1008.7 hPa | - | - | - | - |
| 1777642516 | 28.89° C | 23% | 1008.9 hPa | - | - | - | - |
| 1777642216 | 29.44° C | 23% | 1008.9 hPa | - | - | - | - |
| 1777641916 | 29.44° C | 23% | 1009.1 hPa | - | - | - | - |
| 1777641616 | 29.44° C | 22% | 1009.1 hPa | - | - | - | - |
| 1777641316 | 30° C | 22% | 1009.1 hPa | - | - | - | - |
| 1777638010 | 35.56° C | 14% | 1009.7 hPa | - | - | - | - |
* Rain since midnight (hover to see other rain measurements)
** Current wind speed in m/s (hover to see current wind gust speed)